createdAt,value
2022-08-09T00:00:12.002Z,3.60
2022-08-09T00:02:48.994Z,3.80
2022-08-09T00:06:19.654Z,3.50
2022-08-09T00:08:11.001Z,3.87
2022-08-09T00:10:39.732Z,3.87
2022-08-09T00:13:16.729Z,3.73
2022-08-09T00:15:59.486Z,4.00
2022-08-09T00:18:34.725Z,3.90
2022-08-09T00:21:05.150Z,3.67
2022-08-09T00:23:57.540Z,4.43
2022-08-09T00:26:30.102Z,3.73
2022-08-09T00:29:03.860Z,3.73
2022-08-09T00:31:57.457Z,3.80
2022-08-09T00:34:26.284Z,3.70
2022-08-09T00:36:53.051Z,3.77
2022-08-09T00:40:09.819Z,3.33
2022-08-09T00:44:15.692Z,4.20
2022-08-09T00:44:53.921Z,3.80
2022-08-09T00:47:25.077Z,3.60
2022-08-09T00:49:56.537Z,3.93
2022-08-09T00:52:29.961Z,3.60
2022-08-09T00:55:00.335Z,3.90
2022-08-09T00:57:34.958Z,3.60
2022-08-09T01:00:21.029Z,4.03
2022-08-09T01:02:54.718Z,3.80
2022-08-09T01:05:51.962Z,3.90
2022-08-09T01:08:28.671Z,3.80
2022-08-09T01:11:34.105Z,4.80
2022-08-09T01:14:09.907Z,3.97
2022-08-09T01:16:47.220Z,3.90
2022-08-09T01:19:40.278Z,3.63
2022-08-09T01:22:33.238Z,4.30
2022-08-09T01:25:13.616Z,3.97
2022-08-09T01:27:51.289Z,3.80
2022-08-09T01:30:28.776Z,4.17
2022-08-09T01:33:03.488Z,4.53
2022-08-09T01:35:44.681Z,4.03
2022-08-09T01:38:19.455Z,4.10
2022-08-09T01:41:05.380Z,4.40
2022-08-09T01:43:42.105Z,4.77
2022-08-09T01:46:24.990Z,4.17
2022-08-09T01:49:15.872Z,4.60
2022-08-09T01:51:53.644Z,4.40
2022-08-09T01:54:32.801Z,4.60
2022-08-09T01:57:06.388Z,4.97
2022-08-09T01:59:40.924Z,4.80
2022-08-09T02:02:21.803Z,5.27
2022-08-09T02:04:51.019Z,4.90
2022-08-09T02:08:38.807Z,5.07
2022-08-09T02:10:33.143Z,5.43
2022-08-09T02:13:06.120Z,5.17
2022-08-09T02:15:49.283Z,5.20
2022-08-09T02:18:23.664Z,4.50
2022-08-09T02:20:56.517Z,5.13
2022-08-09T02:23:39.779Z,4.83
2022-08-09T02:26:24.706Z,5.60
2022-08-09T02:28:58.210Z,5.30
2022-08-09T02:31:35.438Z,5.10
2022-08-09T02:34:13.093Z,4.87
2022-08-09T02:36:52.550Z,5.47
2022-08-09T02:39:33.508Z,5.73
2022-08-09T02:42:05.644Z,4.97
2022-08-09T02:44:38.783Z,5.67
2022-08-09T02:47:13.420Z,5.23
2022-08-09T02:50:01.255Z,5.00
2022-08-09T02:52:36.469Z,4.70
2022-08-09T02:55:15.220Z,4.97
2022-08-09T02:58:00.246Z,5.17
2022-08-09T03:00:58.277Z,5.17
2022-08-09T03:04:12.870Z,5.00
2022-08-09T03:06:15.784Z,4.90
2022-08-09T03:08:44.447Z,5.93
2022-08-09T03:11:15.280Z,5.13
2022-08-09T03:14:03.086Z,5.23
2022-08-09T03:16:31.607Z,5.03
2022-08-09T03:19:01.884Z,5.00
2022-08-09T03:21:29.320Z,4.97
2022-08-09T03:24:06.557Z,5.27
2022-08-09T03:26:44.934Z,4.80
2022-08-09T03:29:22.745Z,5.30
2022-08-09T03:31:59.807Z,5.23
2022-08-09T03:34:27.938Z,4.93
2022-08-09T03:36:58.196Z,4.10
2022-08-09T03:39:37.859Z,4.70
2022-08-09T03:42:06.147Z,4.90
2022-08-09T03:44:33.099Z,5.17
2022-08-09T03:46:59.811Z,5.57
2022-08-09T03:49:29.971Z,5.47
2022-08-09T03:52:03.731Z,5.17
2022-08-09T03:54:38.616Z,5.53
2022-08-09T03:57:18.038Z,4.87
2022-08-09T03:59:53.165Z,5.40
2022-08-09T04:02:28.342Z,5.13
2022-08-09T04:05:06.275Z,5.10
2022-08-09T04:07:47.817Z,4.70
2022-08-09T04:10:28.879Z,5.20
2022-08-09T04:12:57.699Z,5.13
2022-08-09T04:15:40.415Z,6.03
2022-08-09T04:18:16.745Z,5.73
2022-08-09T04:20:49.370Z,5.30
2022-08-09T04:23:17.234Z,5.40
2022-08-09T04:25:49.876Z,5.77
2022-08-09T04:28:30.573Z,5.17
2022-08-09T04:31:01.149Z,5.50
2022-08-09T04:33:52.381Z,5.80
2022-08-09T04:36:25.705Z,5.77
2022-08-09T04:38:53.668Z,5.10
2022-08-09T04:41:24.028Z,5.90
2022-08-09T04:44:04.936Z,5.33
2022-08-09T04:46:56.650Z,5.87
2022-08-09T04:49:22.287Z,5.67
2022-08-09T04:52:07.584Z,6.07
2022-08-09T04:54:36.896Z,6.90
2022-08-09T04:57:04.255Z,5.80
2022-08-09T04:59:31.638Z,5.80
2022-08-09T05:01:58.970Z,6.07
2022-08-09T05:04:31.289Z,5.80
2022-08-09T05:06:58.816Z,6.33
2022-08-09T05:09:41.857Z,6.27
2022-08-09T05:12:12.727Z,5.90
2022-08-09T05:14:41.250Z,5.70
2022-08-09T05:18:36.690Z,5.43
2022-08-09T05:19:56.699Z,6.00
2022-08-09T05:22:36.084Z,6.20
2022-08-09T05:25:10.880Z,5.73
2022-08-09T05:27:45.351Z,6.13
2022-08-09T05:30:14.328Z,5.67
2022-08-09T05:32:42.051Z,5.93
2022-08-09T05:35:11.226Z,6.20
2022-08-09T05:37:47.497Z,5.87
2022-08-09T05:40:15.239Z,6.43
2022-08-09T05:42:43.108Z,6.03
2022-08-09T05:45:14.409Z,6.77
2022-08-09T05:47:52.559Z,6.17
2022-08-09T05:50:44.149Z,6.07
2022-08-09T05:53:31.978Z,6.90
2022-08-09T05:56:01.585Z,6.27
2022-08-09T05:58:28.504Z,6.23
2022-08-09T06:00:55.204Z,6.90
2022-08-09T06:03:21.982Z,6.07
2022-08-09T06:05:57.299Z,6.10
2022-08-09T06:08:27.732Z,6.57
2022-08-09T06:10:55.438Z,6.40
2022-08-09T06:13:23.289Z,6.80
2022-08-09T06:15:52.263Z,5.60
2022-08-09T06:18:23.975Z,6.67
2022-08-09T06:20:57.850Z,6.90
2022-08-09T06:23:57.658Z,7.07
2022-08-09T06:26:22.068Z,6.00
2022-08-09T06:29:01.018Z,6.43
2022-08-09T06:31:40.390Z,6.43
2022-08-09T06:34:20.064Z,5.97
2022-08-09T06:36:50.380Z,6.17
2022-08-09T06:39:49.055Z,6.73
2022-08-09T06:42:14.299Z,6.83
2022-08-09T06:44:41.268Z,6.57
2022-08-09T06:47:10.610Z,6.47
2022-08-09T06:50:11.555Z,6.53
2022-08-09T06:52:25.098Z,6.40
2022-08-09T06:54:54.032Z,6.40
2022-08-09T06:57:25.741Z,6.33
2022-08-09T07:00:57.038Z,6.37
2022-08-09T07:02:56.362Z,6.33
2022-08-09T07:05:24.514Z,6.47
2022-08-09T07:08:11.197Z,6.57
2022-08-09T07:10:38.478Z,6.00
2022-08-09T07:13:27.407Z,5.60
2022-08-09T07:16:38.866Z,5.40
2022-08-09T07:18:39.462Z,6.23
2022-08-09T07:21:07.641Z,5.63
2022-08-09T07:23:36.198Z,5.77
2022-08-09T07:26:04.271Z,5.57
2022-08-09T07:28:34.746Z,5.83
2022-08-09T07:31:04.698Z,5.57
2022-08-09T07:33:52.622Z,5.00
2022-08-09T07:36:19.637Z,4.90
2022-08-09T07:38:54.973Z,4.77
2022-08-09T07:41:25.956Z,5.23
2022-08-09T07:43:56.503Z,4.90
2022-08-09T07:46:25.309Z,4.23
2022-08-09T07:48:59.595Z,4.27
2022-08-09T07:52:03.215Z,4.30
2022-08-09T07:54:19.187Z,3.57
2022-08-09T07:56:55.167Z,3.83
2022-08-09T07:59:33.786Z,3.57
2022-08-09T08:02:08.837Z,3.57
2022-08-09T08:04:36.592Z,3.33
2022-08-09T08:07:14.838Z,3.60
2022-08-09T08:10:08.934Z,2.90
2022-08-09T08:12:42.432Z,2.50
2022-08-09T08:15:13.761Z,2.83
2022-08-09T08:17:53.520Z,2.60
2022-08-09T08:20:27.240Z,2.60
2022-08-09T08:23:06.779Z,2.67
2022-08-09T08:25:48.287Z,2.20
2022-08-09T08:28:18.209Z,2.40
2022-08-09T08:30:53.068Z,2.13
2022-08-09T08:33:23.755Z,2.17
2022-08-09T08:35:59.531Z,1.93
2022-08-09T08:38:29.177Z,1.80
2022-08-09T08:40:58.200Z,2.63
2022-08-09T08:43:27.122Z,2.13
2022-08-09T08:46:10.217Z,2.20
2022-08-09T08:48:51.922Z,2.20
2022-08-09T08:51:22.746Z,1.80
2022-08-09T08:54:03.304Z,1.80
2022-08-09T08:56:34.592Z,2.20
2022-08-09T08:59:19.381Z,2.10
2022-08-09T09:01:52.953Z,1.90
2022-08-09T09:04:29.677Z,1.60
2022-08-09T09:07:08.203Z,2.00
2022-08-09T09:09:58.614Z,1.43
2022-08-09T09:12:29.620Z,1.60
2022-08-09T09:15:00.915Z,1.60
2022-08-09T09:17:48.349Z,1.40
2022-08-09T09:20:15.999Z,1.33
2022-08-09T09:23:02.032Z,1.40
2022-08-09T09:26:04.630Z,1.60
2022-08-09T09:29:01.974Z,1.30
2022-08-09T09:32:03.880Z,1.60
2022-08-09T09:34:15.193Z,1.63
2022-08-09T09:36:51.191Z,1.50
2022-08-09T09:39:23.453Z,1.70
2022-08-09T09:41:54.212Z,1.43
2022-08-09T09:44:25.769Z,1.10
2022-08-09T09:47:10.339Z,1.53
2022-08-09T09:50:13.423Z,1.40
2022-08-09T09:52:36.293Z,1.10
2022-08-09T09:55:23.961Z,0.97
2022-08-09T09:58:15.823Z,1.43
2022-08-09T10:00:52.572Z,0.63
2022-08-09T10:03:42.583Z,1.10
2022-08-09T10:06:11.701Z,0.93
2022-08-09T10:08:43.339Z,0.83
2022-08-09T10:12:00.163Z,0.90
2022-08-09T10:14:31.029Z,1.10
2022-08-09T10:17:24.368Z,0.80
2022-08-09T10:19:58.847Z,1.00
2022-08-09T10:22:33.410Z,1.10
2022-08-09T10:25:10.766Z,0.90
2022-08-09T10:27:45.218Z,0.80
2022-08-09T10:33:29.620Z,0.90
2022-08-09T10:36:00.984Z,1.00
2022-08-09T10:38:54.946Z,1.50
2022-08-09T10:41:18.638Z,0.90
2022-08-09T10:43:58.589Z,0.73
2022-08-09T10:48:12.291Z,0.70
2022-08-09T10:50:31.281Z,0.70
2022-08-09T10:53:10.314Z,0.87
2022-08-09T10:55:55.400Z,0.97
2022-08-09T10:58:37.047Z,0.97
2022-08-09T11:03:02.261Z,0.83
2022-08-09T11:04:27.962Z,0.70
2022-08-09T11:06:59.890Z,0.80
2022-08-09T11:09:47.939Z,0.90
2022-08-09T11:12:20.386Z,1.40
2022-08-09T11:15:19.027Z,0.80
2022-08-09T11:17:56.904Z,0.60
2022-08-09T11:20:49.541Z,0.80
2022-08-09T11:23:17.039Z,0.90
2022-08-09T11:25:51.021Z,1.10
2022-08-09T11:28:56.457Z,1.07
2022-08-09T11:31:53.153Z,1.10
2022-08-09T11:34:28.501Z,0.90
2022-08-09T11:36:59.118Z,0.85
2022-08-09T11:39:25.986Z,0.73
2022-08-09T11:42:09.341Z,1.10
2022-08-09T11:44:46.533Z,0.68
2022-08-09T11:47:15.178Z,0.82
2022-08-09T11:50:53.960Z,1.05
2022-08-09T11:53:16.549Z,0.90
2022-08-09T11:55:53.952Z,0.80
2022-08-09T11:58:33.609Z,0.70
2022-08-09T12:01:37.846Z,0.98
2022-08-09T12:04:06.409Z,1.08
2022-08-09T12:06:35.481Z,1.25
2022-08-09T12:09:19.239Z,0.90
2022-08-09T12:12:02.513Z,1.10
2022-08-09T12:14:36.970Z,0.95
2022-08-09T12:17:28.042Z,0.88
2022-08-09T12:20:00.715Z,0.93
2022-08-09T12:22:29.221Z,0.80
2022-08-09T12:25:17.447Z,0.90
2022-08-09T12:29:00.150Z,1.08
2022-08-09T12:30:36.132Z,1.00
2022-08-09T12:33:06.174Z,0.90
2022-08-09T12:35:40.690Z,1.13
2022-08-09T12:38:37.420Z,1.10
2022-08-09T12:41:07.234Z,1.40
2022-08-09T12:44:05.381Z,1.13
2022-08-09T12:46:24.442Z,1.10
2022-08-09T12:48:55.587Z,0.93
2022-08-09T12:51:52.557Z,1.20
2022-08-09T12:54:10.869Z,0.90
2022-08-09T12:56:54.122Z,0.93
2022-08-09T12:59:23.343Z,0.98
2022-08-09T13:01:59.239Z,0.90
2022-08-09T13:04:35.988Z,0.88
2022-08-09T13:07:13.399Z,0.80
2022-08-09T13:09:43.424Z,1.00
2022-08-09T13:12:19.996Z,1.00
2022-08-09T13:14:53.817Z,0.73
2022-08-09T13:17:43.926Z,0.90
2022-08-09T13:20:14.097Z,0.70
2022-08-09T13:23:05.861Z,0.93
2022-08-09T13:25:54.704Z,0.70
2022-08-09T13:28:34.198Z,0.95
2022-08-09T13:32:13.285Z,0.73
2022-08-09T13:33:57.592Z,0.82
2022-08-09T13:36:41.400Z,0.80
2022-08-09T13:41:50.577Z,1.08
2022-08-09T13:42:12.151Z,1.20
2022-08-09T13:44:41.968Z,0.80
2022-08-09T13:47:31.245Z,0.85
2022-08-09T13:50:18.128Z,0.88
2022-08-09T13:52:53.373Z,0.80
2022-08-09T13:55:20.933Z,0.90
2022-08-09T13:57:56.230Z,0.98
2022-08-09T14:00:29.164Z,1.10
2022-08-09T14:03:03.862Z,0.80
2022-08-09T14:06:01.414Z,0.80
2022-08-09T14:08:32.337Z,0.80
2022-08-09T14:11:00.258Z,0.93
2022-08-09T14:14:24.621Z,1.15
2022-08-09T14:16:17.946Z,1.00
2022-08-09T14:18:49.406Z,0.90
2022-08-09T14:21:23.194Z,1.25
2022-08-09T14:23:53.730Z,1.00
2022-08-09T14:26:32.589Z,1.10
2022-08-09T14:30:04.158Z,1.23
2022-08-09T14:31:55.981Z,1.20
2022-08-09T14:34:27.470Z,1.10
2022-08-09T14:37:06.572Z,0.98
2022-08-09T14:39:39.936Z,1.00
2022-08-09T14:42:13.324Z,0.88
2022-08-09T14:45:14.765Z,1.05
2022-08-09T14:47:57.371Z,1.00
2022-08-09T14:50:28.105Z,1.17
2022-08-09T14:52:54.995Z,0.98
2022-08-09T14:55:22.105Z,0.80
2022-08-09T14:57:49.411Z,0.77
2022-08-09T15:00:17.648Z,0.95
2022-08-09T15:02:47.745Z,1.27
2022-08-09T15:05:18.984Z,1.08
2022-08-09T15:07:56.233Z,1.10
2022-08-09T15:10:26.897Z,1.10
2022-08-09T15:12:55.787Z,1.17
2022-08-09T15:15:24.748Z,1.20
2022-08-09T15:17:55.738Z,1.10
2022-08-09T15:21:56.706Z,1.10
2022-08-09T15:24:02.072Z,0.70
2022-08-09T15:25:58.350Z,1.10
2022-08-09T15:28:28.024Z,0.93
2022-08-09T15:31:07.277Z,1.23
2022-08-09T15:34:18.033Z,1.00
2022-08-09T15:36:25.497Z,0.90
2022-08-09T15:38:56.842Z,0.90
2022-08-09T15:41:31.538Z,1.00
2022-08-09T15:44:03.811Z,1.07
2022-08-09T15:46:33.085Z,0.83
2022-08-09T15:49:22.423Z,1.30
2022-08-09T15:52:04.051Z,0.80
2022-08-09T15:54:46.390Z,0.80
2022-08-09T15:57:19.216Z,0.90
2022-08-09T16:00:03.718Z,1.50
2022-08-09T16:02:31.597Z,1.17
2022-08-09T16:04:58.351Z,1.07
2022-08-09T16:07:29.298Z,1.10
2022-08-09T16:10:17.069Z,1.10
2022-08-09T16:12:55.291Z,1.00
2022-08-09T16:16:10.202Z,1.00
2022-08-09T16:18:10.248Z,1.20
2022-08-09T16:20:37.973Z,1.20
2022-08-09T16:23:09.654Z,0.77
2022-08-09T16:25:40.687Z,0.87
2022-08-09T16:28:08.208Z,0.90
2022-08-09T16:30:40.925Z,1.27
2022-08-09T16:33:11.563Z,1.03
2022-08-09T16:35:56.842Z,0.90
2022-08-09T16:38:26.723Z,0.80
2022-08-09T16:40:53.595Z,1.00
2022-08-09T16:43:22.300Z,1.10
2022-08-09T16:45:53.439Z,0.80
2022-08-09T16:48:39.218Z,1.00
2022-08-09T16:51:14.064Z,0.90
2022-08-09T16:54:24.824Z,1.00
2022-08-09T16:56:33.228Z,0.90
2022-08-09T16:59:06.801Z,0.90
2022-08-09T17:01:37.737Z,0.60
2022-08-09T17:04:06.739Z,0.83
2022-08-09T17:06:47.353Z,1.00
2022-08-09T17:09:45.498Z,0.80
2022-08-09T17:12:08.321Z,1.10
2022-08-09T17:14:35.332Z,1.13
2022-08-09T17:17:04.084Z,1.10
2022-08-09T17:20:28.286Z,0.83
2022-08-09T17:22:39.847Z,1.00
2022-08-09T17:25:19.142Z,0.80
2022-08-09T17:27:49.157Z,0.87
2022-08-09T17:30:26.007Z,0.90
2022-08-09T17:32:53.677Z,0.80
2022-08-09T17:35:20.432Z,1.00
2022-08-09T17:38:11.179Z,0.90
2022-08-09T17:40:35.225Z,0.87
2022-08-09T17:43:10.621Z,0.97
2022-08-09T17:46:03.612Z,1.63
2022-08-09T17:48:31.321Z,0.87
2022-08-09T17:50:59.254Z,0.97
2022-08-09T17:53:35.608Z,1.30
2022-08-09T17:56:10.823Z,1.20
2022-08-09T17:58:37.562Z,1.10
2022-08-09T18:01:09.663Z,0.90
2022-08-09T18:03:42.569Z,1.17
2022-08-09T18:06:22.412Z,1.10
2022-08-09T18:08:56.423Z,0.97
2022-08-09T18:11:23.915Z,0.77
2022-08-09T18:13:58.782Z,0.77
2022-08-09T18:16:30.919Z,1.00
2022-08-09T18:19:03.877Z,1.10
2022-08-09T18:21:41.479Z,0.90
2022-08-09T18:24:14.588Z,1.07
2022-08-09T18:26:46.205Z,1.00
2022-08-09T18:30:42.771Z,1.10
2022-08-09T18:32:03.476Z,1.10
2022-08-09T18:34:34.952Z,1.10
2022-08-09T18:37:03.836Z,1.20
2022-08-09T18:39:32.076Z,1.00
2022-08-09T18:42:05.434Z,1.30
2022-08-09T18:44:36.116Z,1.30
2022-08-09T18:47:08.049Z,1.40
2022-08-09T18:49:43.185Z,1.37
2022-08-09T18:52:15.924Z,1.30
2022-08-09T18:54:52.680Z,1.20
2022-08-09T18:57:22.784Z,1.13
2022-08-09T18:59:55.469Z,1.33
2022-08-09T19:02:32.251Z,1.00
2022-08-09T19:05:04.175Z,1.03
2022-08-09T19:07:43.232Z,1.00
2022-08-09T19:10:26.929Z,1.27
2022-08-09T19:13:04.950Z,0.90
2022-08-09T19:15:43.767Z,1.10
2022-08-09T19:18:17.329Z,1.03
2022-08-09T19:21:01.317Z,1.20
2022-08-09T19:24:31.573Z,1.30
2022-08-09T19:26:16.505Z,1.20
2022-08-09T19:28:48.966Z,1.37
2022-08-09T19:31:16.644Z,1.20
2022-08-09T19:33:43.702Z,1.80
2022-08-09T19:36:11.756Z,1.43
2022-08-09T19:38:40.440Z,1.10
2022-08-09T19:41:07.276Z,1.00
2022-08-09T19:44:01.126Z,1.10
2022-08-09T19:46:34.292Z,1.00
2022-08-09T19:50:09.906Z,1.40
2022-08-09T19:51:55.526Z,1.80
2022-08-09T19:54:24.949Z,1.47
2022-08-09T19:56:52.440Z,1.37
2022-08-09T19:59:58.047Z,1.73
2022-08-09T20:02:18.231Z,1.00
2022-08-09T20:04:55.626Z,1.80
2022-08-09T20:07:22.797Z,1.47
2022-08-09T20:09:49.907Z,1.37
2022-08-09T20:12:29.918Z,1.20
2022-08-09T20:16:37.922Z,1.40
2022-08-09T20:17:54.640Z,2.10
2022-08-09T20:20:22.091Z,1.93
2022-08-09T20:22:51.417Z,2.00
2022-08-09T20:25:23.687Z,1.70
2022-08-09T20:27:50.975Z,1.50
2022-08-09T20:30:23.750Z,1.33
2022-08-09T20:32:52.443Z,1.60
2022-08-09T20:35:20.764Z,1.77
2022-08-09T20:38:21.849Z,1.40
2022-08-09T20:40:35.320Z,1.70
2022-08-09T20:43:18.446Z,1.40
2022-08-09T20:46:00.839Z,1.87
2022-08-09T20:48:39.455Z,1.37
2022-08-09T20:51:07.114Z,1.20
2022-08-09T20:53:43.713Z,1.50
2022-08-09T20:56:20.202Z,1.50
2022-08-09T20:58:47.620Z,1.67
2022-08-09T21:01:35.352Z,1.60
2022-08-09T21:05:49.910Z,1.20
2022-08-09T21:06:51.036Z,1.65
2022-08-09T21:09:32.736Z,1.53
2022-08-09T21:14:37.011Z,1.73
2022-08-09T21:18:10.996Z,1.70
2022-08-09T21:20:17.808Z,1.60
2022-08-09T21:22:46.949Z,1.60
2022-08-09T21:25:38.101Z,1.70
2022-08-09T21:28:05.813Z,1.70
2022-08-09T21:30:34.360Z,1.53
2022-08-09T21:33:05.796Z,1.60
2022-08-09T21:35:40.660Z,1.60
2022-08-09T21:38:09.300Z,1.87
2022-08-09T21:40:38.038Z,2.10
2022-08-09T21:43:06.050Z,1.70
2022-08-09T21:45:38.711Z,1.70
2022-08-09T21:48:07.334Z,1.50
2022-08-09T21:50:38.552Z,1.70
2022-08-09T21:53:19.954Z,1.83
2022-08-09T21:55:54.689Z,2.10
2022-08-09T21:58:21.399Z,1.70
2022-08-09T22:00:58.007Z,1.70
2022-08-09T22:03:25.610Z,1.90
2022-08-09T22:05:54.195Z,1.80
2022-08-09T22:08:23.077Z,1.73
2022-08-09T22:11:49.711Z,1.50
2022-08-09T22:13:43.229Z,1.47
2022-08-09T22:16:11.141Z,1.70
2022-08-09T22:18:53.080Z,1.50
2022-08-09T22:21:49.672Z,1.83
2022-08-09T22:24:16.890Z,1.40
2022-08-09T22:26:51.594Z,1.43
2022-08-09T22:29:19.567Z,1.60
2022-08-09T22:31:56.642Z,1.40
2022-08-09T22:34:28.622Z,1.13
2022-08-09T22:36:57.039Z,1.40
2022-08-09T22:39:55.424Z,1.50
2022-08-09T22:42:21.082Z,1.43
2022-08-09T22:45:00.528Z,1.43
2022-08-09T22:48:16.726Z,1.43
2022-08-09T22:50:30.114Z,1.50
2022-08-09T22:52:58.365Z,1.43
2022-08-09T22:55:33.676Z,1.63
2022-08-09T22:58:20.314Z,1.50
2022-08-09T23:01:02.121Z,1.40
2022-08-09T23:04:02.595Z,1.57
2022-08-09T23:06:29.873Z,1.43
2022-08-09T23:09:06.086Z,1.57
2022-08-09T23:11:33.040Z,1.60
2022-08-09T23:13:59.836Z,1.50
2022-08-09T23:16:26.636Z,1.60
2022-08-09T23:18:53.342Z,1.20
2022-08-09T23:21:26.781Z,1.53
2022-08-09T23:24:05.153Z,1.43
2022-08-09T23:26:35.487Z,1.53
2022-08-09T23:29:02.307Z,1.40
2022-08-09T23:31:29.015Z,1.37
2022-08-09T23:33:55.739Z,1.80
2022-08-09T23:36:22.516Z,1.50
2022-08-09T23:38:49.592Z,1.50
2022-08-09T23:41:28.968Z,1.40
2022-08-09T23:44:00.376Z,1.67
2022-08-09T23:46:28.656Z,1.70
2022-08-09T23:48:56.164Z,1.77
2022-08-09T23:51:23.027Z,1.40
2022-08-09T23:53:50.537Z,1.60
2022-08-09T23:56:52.541Z,1.47
2022-08-09T23:59:06.631Z,1.57
